Forecasts are only available for sites displaying the forecast symbol.

Some water levels are actually in metres AHD (Australian Height Datum), click individual sites for more details.

Scroll for more >

River gauges, storages, and weirs in the Murray–Darling Basin

Type Location Riversort descending Water level Flow Volume Release Water temp Salinity Rainfall
River Gauge Rochester Campaspe 1.82 m 27/02/2020 8:45 156 ML/Day 27/02/2020 8:45 Not measured Not measured 21.0°C 27/02/2020 8:45 704.6 μS/cm 27/02/2020 8:45 0.0 mm 27/02/2020 9:00 Full data
River Gauge Wilcania Darling -0.27 m 27/02/2020 8:45 3 ML/Day 27/02/2020 8:45 Not measured Not measured 26.3°C 4/02/2020 9:45 0.0 μS/cm 4/02/2020 9:45 Not measured Full data
Storage Menindee Lakes Darling Not measured Not measured 6 GL 26/02/2020 7:45 Not measured Not measured Not measured Not measured Full data
River Gauge Weir 32 Upstream Darling 0.58 m 27/02/2020 8:45 1 ML/Day 27/02/2020 8:45 Not measured Not measured 26.7°C 5/02/2020 10:00 0.0 μS/cm 4/02/2020 17:45 Not measured Full data
River Gauge Burtundy Darling 0.49 m 26/02/2020 7:45 0 ML/Day 26/02/2020 7:45 Not measured Not measured 31.9°C 4/02/2020 12:15 1157.8 μS/cm 3/09/2019 14:45 Not measured Full data
Weirs Steven's Weir Upstream Edward 4.5 m 27/02/2020 8:30 Not measured Not measured Not measured Not measured Not measured Not measured Full data
Weirs Steven's Weir Downstream Edward 1.3 m 27/02/2020 8:45 1040 ML/Day 27/02/2020 8:45 Not measured Not measured 23.7°C 27/02/2020 8:45 93.9 μS/cm 27/02/2020 8:45 Not measured Full data
River Gauge McCoy Bridge Goulburn 1.49 m 27/02/2020 8:45 981 ML/Day 27/02/2020 8:45 Not measured Not measured 22.1°C 27/02/2020 8:45 52.3 μS/cm 27/02/2020 8:45 Not measured Full data
River Gauge Bandiana Kiewa 0.86 m 27/02/2020 8:45 316 ML/Day 27/02/2020 8:45 Not measured Not measured 19.8°C 27/02/2020 8:45 29.7 μS/cm 27/02/2020 8:45 Not measured Full data
River Gauge Kerang Loddon 0.43 m 27/02/2020 8:45 289 ML/Day 27/02/2020 8:45 Not measured Not measured 21.4°C 27/02/2020 8:45 88.7 μS/cm 27/02/2020 8:45 Not measured Full data
River Gauge Hinnomunjie Mitta 0.47 m 27/02/2020 8:45 156 ML/Day 27/02/2020 8:45 Not measured Not measured 18.9°C 27/02/2020 8:45 532.4 μS/cm 27/02/2020 8:45 0.0 mm 27/02/2020 9:00 Full data
Storage Dartmouth Dam Mitta 447.28 m 27/02/2020 8:45 Not measured 1800 GL 27/02/2020 8:45 Not measured Not measured Not measured Not measured Full data
River Gauge Colemans Mitta 1.75 m 27/02/2020 8:45 2194 ML/Day 27/02/2020 8:45 Not measured Not measured 15.8°C 21/02/2020 15:45 47.1 μS/cm 21/02/2020 15:45 Not measured Full data
River Gauge Tallandoon Mitta 2.05 m 27/02/2020 8:45 2453 ML/Day 27/02/2020 8:45 Not measured Not measured 16.2°C 27/02/2020 8:45 41.1 μS/cm 27/02/2020 8:45 Not measured Full data
River Gauge Barmah Choke Murray 2.07 m 27/02/2020 8:45 5458 ML/Day 27/02/2020 8:45 Not measured Not measured Not measured Not measured Not measured Full data
River Gauge Redcliffs Murray Not measured Not measured Not measured Not measured Not measured 43.6 μS/cm 22/10/2019 13:45 Not measured Full data
River Gauge Biggara Murray 0.33 m 27/02/2020 9:00 302 ML/Day 27/02/2020 9:00 Not measured Not measured 20.7°C 27/02/2020 9:00 667.8 μS/cm 27/02/2020 9:00 0.0 mm 27/02/2020 9:00 Full data
River Gauge Bringenbrong Bridge Murray 1.18 m 27/02/2020 9:00 1982 ML/Day 27/02/2020 9:00 Not measured Not measured Not measured Not measured Not measured Full data
River Gauge Pinegrove Murray 0.95 m 27/02/2020 9:00 136 ML/Day 27/02/2020 9:00 Not measured Not measured 19.5°C 27/02/2020 9:00 201.5 μS/cm 27/02/2020 9:00 0.0 mm 27/02/2020 9:00 Full data
River Gauge Jingellic Murray 1.6 m 27/02/2020 8:45 3815 ML/Day 27/02/2020 8:45 Not measured Not measured 21.6°C 27/02/2020 8:45 48.8 μS/cm 27/02/2020 8:45 0.0 mm 27/02/2020 9:00 Full data
Storage Hume Dam Murray 173.58 m 27/02/2020 9:00 Not measured 504 GL 27/02/2020 9:00 7135.0 ML/d27/02/2020 8:00 Not measured Not measured 0.2 mm 27/02/2020 9:00 Full data
River Gauge Doctors Point Murray 2.45 m 27/02/2020 9:00 8758 ML/Day 27/02/2020 9:00 Not measured Not measured 22.0°C 27/02/2020 9:00 53.2 μS/cm 27/02/2020 9:00 Not measured Full data
River Gauge Albury (Union Bridge) Murray 1.47 m 27/02/2020 9:00 Not measured Not measured Not measured 21.5°C 27/02/2020 9:00 49.4 μS/cm 27/02/2020 9:00 Not measured Full data
River Gauge Corowa Murray 1.8 m 27/02/2020 9:00 6999 ML/Day 27/02/2020 9:00 Not measured Not measured 23.4°C 27/02/2020 9:00 55.1 μS/cm 27/02/2020 9:00 Not measured Full data
Weirs Yarrawonga Weir Upstream Murray 124.78 m 27/02/2020 8:45 Not measured Not measured Not measured Not measured Not measured 0.4 mm 27/02/2020 9:00 Full data
Weirs Yarrawonga Weir Downstream Murray 1.11 m 27/02/2020 9:00 6478 ML/Day 27/02/2020 9:00 Not measured Not measured 22.4°C 27/02/2020 9:00 70.1 μS/cm 27/02/2020 9:00 Not measured Full data
River Gauge Yarrawonga Main Channel Murray 123.38 m 27/02/2020 8:45 Not measured Not measured 633.4 ML/d27/02/2020 8:45 Not measured Not measured Not measured Full data
River Gauge Mulwala Canal Murray Not measured Not measured Not measured 415.7 ML/d27/02/2020 7:45 Not measured Not measured Not measured Full data
River Gauge Tocumwal Murray 1.74 m 27/02/2020 8:45 6631 ML/Day 27/02/2020 8:45 Not measured Not measured 22.5°C 27/02/2020 8:45 41.2 μS/cm 27/02/2020 8:45 Not measured Full data
River Gauge Edward River Offtake Murray 2.36 m 27/02/2020 8:45 1507 ML/Day 27/02/2020 8:45 Not measured Not measured 24.1°C 27/02/2020 8:45 50.0 μS/cm 27/02/2020 8:45 Not measured Full data
River Gauge Gulpa Creek Offtake Murray 2.17 m 27/02/2020 8:45 190 ML/Day 27/02/2020 8:45 Not measured Not measured Not measured Not measured Not measured Full data
River Gauge Echuca Wharf Murray 86.97 m 13/02/2020 8:45 Not measured Not measured Not measured Not measured Not measured Not measured Full data
Weirs Torrumbarry Weir Downstream Murray 2.01 m 27/02/2020 8:45 5577 ML/Day 27/02/2020 8:45 Not measured Not measured 23.9°C 27/02/2020 8:45 60.0 μS/cm 27/02/2020 8:45 Not measured Full data
Weirs Torrumbarry Weir Upstream Murray 86.05 m 27/02/2020 8:30 Not measured 37 GL 27/02/2020 7:45 Not measured 59.8°C 26/02/2020 7:45 60.0 μS/cm 27/02/2020 6:45 0.0 mm 26/02/2020 9:00 Full data
River Gauge Torrumbarry Headworks Murray 84.75 m 27/02/2020 8:45 Not measured Not measured 1211.5 ML/d27/02/2020 8:45 Not measured Not measured Not measured Full data
River Gauge Stoney Crossing Murray 1.34 m 27/02/2020 8:45 327 ML/Day 27/02/2020 8:45 Not measured 332.8 ML/d27/02/2020 7:45 23.6°C 27/02/2020 8:45 205.0 μS/cm 27/02/2020 8:45 Not measured Full data
River Gauge Swan Hill Murray 1.4 m 27/02/2020 8:45 7334 ML/Day 27/02/2020 8:45 Not measured Not measured 23.7°C 27/02/2020 8:45 81.4 μS/cm 27/02/2020 8:45 Not measured Full data
River Gauge Wakool Junction Murray 3.22 m 27/02/2020 8:45 9106 ML/Day 27/02/2020 8:45 Not measured Not measured 23.8°C 27/02/2020 8:45 72.5 μS/cm 27/02/2020 8:45 Not measured Full data
Weirs Euston Weir Upstream Murray 47.63 m 27/02/2020 7:45 Not measured 37 GL 27/02/2020 7:45 Not measured Not measured Not measured 0.0 mm 21/02/2019 9:00 Full data
Weirs Euston Weir Downstream Murray 43.52 m 27/02/2020 8:45 9359 ML/Day 27/02/2020 8:45 Not measured Not measured 24.0°C 27/02/2020 8:45 78.0 μS/cm 27/02/2020 8:45 Not measured Full data
River Gauge Colignan Murray 2.13 m 27/02/2020 8:45 8218 ML/Day 27/02/2020 8:45 Not measured Not measured 23.8°C 27/02/2020 8:45 79.8 μS/cm 27/02/2020 8:45 Not measured Full data
Weirs Mildura Weir downstream Murray 31.02 m 27/02/2020 7:45 Not measured Not measured Not measured 22.0°C 27/02/2020 7:45 94.3 μS/cm 27/02/2020 7:45 Not measured Full data
Weirs Lock 9 Downstream Murray 23.78 m 27/02/2020 7:45 Not measured Not measured Not measured Not measured Not measured Not measured Full data
Weirs Lock 9 Upstream Murray 27.34 m 27/02/2020 7:45 Not measured Not measured Not measured 24.6°C 27/02/2020 7:45 95.8 μS/cm 27/02/2020 7:45 Not measured Full data
Weirs Lock 8 Upstream Murray 23.62 m 27/02/2020 7:45 Not measured Not measured Not measured 24.4°C 27/02/2020 7:45 103.3 μS/cm 27/02/2020 7:45 Not measured Full data
River Gauge Frenchman Creek Murray 27.35 m 27/02/2020 7:45 Not measured Not measured 700.0 ML/d27/02/2020 7:45 Not measured Not measured Not measured Full data
Storage Lake Victoria Murray 23.18 m 27/02/2020 7:45 Not measured 263 GL 27/02/2020 7:45 Not measured 20.9°C 27/02/2020 7:45 146.0 μS/cm 27/02/2020 7:45 Not measured Full data
River Gauge Rufus River Murray 20.45 m 27/02/2020 7:45 Not measured Not measured 1508.1 ML/d27/02/2020 7:45 Not measured 186.5 μS/cm 8/02/2020 13:00 Not measured Full data
Weirs Lock 7 Downstream Murray 20.31 m 27/02/2020 7:45 Not measured Not measured Not measured Not measured Not measured Not measured Full data
Weirs Lock 7 Upstream Murray 21.55 m 27/02/2020 7:45 Not measured Not measured Not measured 23.6°C 27/02/2020 7:45 96.7 μS/cm 27/02/2020 7:45 Not measured Full data
River Gauge Flow to South Australia Murray Not measured Not measured Not measured 6310.7 ML/d27/02/2020 7:45 Not measured Not measured Not measured Full data
Weirs Lock 6 Downstream Murray 16.37 m 27/02/2020 7:45 Not measured Not measured Not measured Not measured Not measured Not measured Full data
Weirs Lock 6 Upstream Murray 19.29 m 27/02/2020 7:45 Not measured Not measured Not measured 23.0°C 27/02/2020 7:45 122.7 μS/cm 27/02/2020 7:45 Not measured Full data
Weirs Lock 5 Downstream Murray 13.39 m 27/02/2020 7:45 Not measured Not measured Not measured Not measured Not measured Not measured Full data
Weirs Lock 5 Upstream Murray 16.34 m 27/02/2020 7:45 Not measured Not measured Not measured 23.8°C 27/02/2020 7:45 128.4 μS/cm 27/02/2020 7:45 Not measured Full data
Weirs Lock 4 Downstream Murray 10.35 m 27/02/2020 7:45 Not measured Not measured Not measured Not measured Not measured Not measured Full data
Weirs Lock 4 Upstream Murray 13.26 m 27/02/2020 7:45 Not measured Not measured Not measured Not measured Not measured Not measured Full data
Weirs Lock 3 Downstream Murray 6.3 m 27/02/2020 7:45 Not measured Not measured Not measured Not measured Not measured Not measured Full data
Weirs Lock 3 Upstream Murray 9.85 m 27/02/2020 7:45 Not measured Not measured Not measured Not measured Not measured Not measured Full data
Weirs Lock 2 Downstream Murray 3.35 m 27/02/2020 7:45 Not measured Not measured Not measured Not measured Not measured Not measured Full data
Weirs Lock 2 Upstream Murray 6.19 m 27/02/2020 7:45 Not measured Not measured Not measured 23.2°C 27/02/2020 7:45 205.8 μS/cm 27/02/2020 7:45 Not measured Full data
River Gauge Morgan Downstream Murray Not measured Not measured Not measured 2420.9 ML/d27/02/2020 7:45 Not measured 213.9 μS/cm 27/02/2020 6:45 Not measured Full data
Weirs Lock 1 Downstream Murray 0.57 m 27/02/2020 7:45 Not measured Not measured 2993.6 ML/d27/02/2020 7:45 Not measured Not measured Not measured Full data
Weirs Lock 1 Upstream Murray 3.28 m 27/02/2020 7:45 Not measured Not measured Not measured 22.8°C 27/02/2020 7:45 207.4 μS/cm 27/02/2020 7:45 Not measured Full data
River Gauge Murray Bridge Murray 0.55 m 27/02/2020 7:45 Not measured Not measured Not measured 22.0°C 27/02/2020 7:45 264.4 μS/cm 27/02/2020 7:45 Not measured Full data
River Gauge Lake Alexandrina Murray 0.5 m 27/02/2020 5:45 Not measured 1451 GL 27/02/2020 5:45 Not measured Not measured 926.7 μS/cm 27/02/2020 7:45 Not measured Full data
River Gauge Lake Albert Murray 0.57 m 27/02/2020 5:45 Not measured 240 GL 27/02/2020 5:45 Not measured Not measured Not measured Not measured Full data
River Gauge Tauwitchere Barrage Murray 0.55 m 27/02/2020 7:45 Not measured Not measured Not measured Not measured Not measured Not measured Full data
River Gauge Mundoo Barrage Murray 0.51 m 27/02/2020 7:45 Not measured Not measured Not measured Not measured Not measured Not measured Full data
Weirs Wentworth Weir Murray 27.61 m 27/02/2020 8:45 Not measured Not measured 6650.2 ML/d27/02/2020 7:45 Not measured 84.0 μS/cm 27/02/2020 7:45 0.0 mm 31/01/2019 9:00 Full data
River Gauge Balranald Murrumbidgee 1.83 m 27/02/2020 8:45 1408 ML/Day 27/02/2020 8:45 Not measured Not measured 24.5°C 27/02/2020 8:45 97.7 μS/cm 27/02/2020 8:45 Not measured Full data
River Gauge Peechelba Ovens 126.04 m 27/02/2020 8:45 114 ML/Day 27/02/2020 8:45 Not measured Not measured 22.1°C 27/02/2020 8:45 69.7 μS/cm 27/02/2020 8:45 Not measured Full data
River Gauge Edward Escape Wakool 0.01 m 27/02/2020 8:45 3 ML/Day 27/02/2020 8:45 Not measured Not measured 22.1°C 27/02/2020 8:45 67.4 μS/cm 27/02/2020 8:45 Not measured Full data
River Gauge Wakool Canal Wakool 0.44 m 27/02/2020 8:45 Not measured Not measured 74.1 ML/d27/02/2020 8:45 Not measured Not measured Not measured Full data